createdAt,value
2017-10-20T00:01:51.371Z,11.00
2017-10-20T00:04:17.690Z,11.00
2017-10-20T00:06:44.049Z,11.10
2017-10-20T00:09:10.455Z,11.00
2017-10-20T00:11:36.843Z,10.90
2017-10-20T00:14:03.233Z,11.00
2017-10-20T00:16:29.611Z,11.00
2017-10-20T00:18:56.105Z,11.00
2017-10-20T00:21:22.478Z,11.00
2017-10-20T00:23:49.073Z,11.00
2017-10-20T00:26:15.380Z,10.90
2017-10-20T00:28:41.718Z,10.90
2017-10-20T00:31:07.997Z,10.90
2017-10-20T00:33:35.093Z,10.80
2017-10-20T00:36:01.486Z,10.80
2017-10-20T00:38:27.867Z,10.80
2017-10-20T00:40:59.960Z,10.80
2017-10-20T00:43:27.204Z,10.80
2017-10-20T00:45:53.569Z,10.80
2017-10-20T00:48:19.876Z,10.80
2017-10-20T00:50:47.021Z,10.80
2017-10-20T00:53:14.301Z,10.80
2017-10-20T00:55:41.453Z,10.80
2017-10-20T00:58:07.819Z,10.80
2017-10-20T01:00:34.190Z,10.80
2017-10-20T01:03:00.601Z,10.70
2017-10-20T01:05:26.946Z,10.70
2017-10-20T01:07:53.350Z,10.80
2017-10-20T01:10:21.077Z,10.80
2017-10-20T01:12:48.188Z,10.70
2017-10-20T01:15:14.525Z,10.70
2017-10-20T01:17:40.851Z,10.70
2017-10-20T01:20:07.205Z,10.70
2017-10-20T01:22:34.306Z,10.70
2017-10-20T01:25:00.660Z,10.70
2017-10-20T01:27:27.031Z,10.70
2017-10-20T01:29:54.107Z,10.70
2017-10-20T01:32:20.525Z,10.70
2017-10-20T01:34:46.880Z,10.70
2017-10-20T01:37:13.210Z,10.70
2017-10-20T01:39:39.618Z,10.70
2017-10-20T01:42:06.030Z,10.70
2017-10-20T01:44:33.121Z,10.70
2017-10-20T01:46:59.530Z,10.60
2017-10-20T01:49:25.883Z,10.60
2017-10-20T01:51:52.249Z,10.70
2017-10-20T01:54:18.626Z,10.60
2017-10-20T01:56:44.938Z,10.60
2017-10-20T01:59:12.006Z,10.60
2017-10-20T02:01:38.382Z,10.50
2017-10-20T02:04:04.842Z,10.60
2017-10-20T02:06:31.204Z,10.60
2017-10-20T02:08:57.641Z,10.60
2017-10-20T02:11:24.300Z,10.50
2017-10-20T02:13:50.612Z,10.50
2017-10-20T02:16:16.921Z,10.50
2017-10-20T02:18:44.001Z,10.40
2017-10-20T02:21:10.352Z,10.40
2017-10-20T02:23:36.667Z,10.50
2017-10-20T02:26:02.997Z,10.40
2017-10-20T02:28:29.414Z,10.40
2017-10-20T02:30:56.598Z,10.40
2017-10-20T02:33:22.911Z,10.40
2017-10-20T02:35:49.265Z,10.40
2017-10-20T02:38:15.635Z,10.30
2017-10-20T02:40:42.773Z,10.30
2017-10-20T02:43:09.200Z,10.30
2017-10-20T02:45:35.643Z,10.30
2017-10-20T02:48:02.050Z,10.30
2017-10-20T02:50:28.374Z,10.30
2017-10-20T02:52:54.769Z,10.30
2017-10-20T02:55:21.827Z,10.30
2017-10-20T02:57:49.106Z,10.30
2017-10-20T03:00:15.514Z,10.30
2017-10-20T03:02:42.980Z,10.30
2017-10-20T03:05:09.370Z,10.30
2017-10-20T03:07:35.692Z,10.30
2017-10-20T03:10:02.025Z,10.30
2017-10-20T03:12:28.407Z,10.30
2017-10-20T03:14:54.794Z,10.30
2017-10-20T03:17:21.243Z,10.20
2017-10-20T03:19:48.319Z,10.30
2017-10-20T03:22:14.647Z,10.30
2017-10-20T03:24:41.041Z,10.20
2017-10-20T03:27:14.303Z,10.20
2017-10-20T03:29:40.912Z,10.20
2017-10-20T03:32:07.306Z,10.10
2017-10-20T03:34:33.649Z,10.20
2017-10-20T03:37:00.685Z,10.20
2017-10-20T03:39:27.086Z,10.10
2017-10-20T03:41:53.450Z,10.10
2017-10-20T03:44:19.904Z,10.20
2017-10-20T03:46:46.970Z,10.10
2017-10-20T03:49:13.379Z,10.10
2017-10-20T03:51:40.507Z,10.20
2017-10-20T03:54:07.868Z,10.10
2017-10-20T03:56:34.232Z,10.20
2017-10-20T03:59:01.381Z,10.10
2017-10-20T04:01:27.771Z,10.10
2017-10-20T04:03:54.189Z,10.10
2017-10-20T04:06:20.528Z,10.10
2017-10-20T04:08:46.890Z,10.10
2017-10-20T04:11:13.217Z,10.10
2017-10-20T04:13:39.505Z,10.10
2017-10-20T04:16:06.800Z,10.10
2017-10-20T04:18:33.203Z,10.10
2017-10-20T04:20:59.534Z,10.00
2017-10-20T04:23:25.936Z,10.10
2017-10-20T04:25:52.388Z,10.10
2017-10-20T04:28:18.747Z,10.10
2017-10-20T04:30:45.126Z,10.10
2017-10-20T04:33:11.481Z,10.10
2017-10-20T04:35:37.856Z,10.10
2017-10-20T04:38:04.286Z,10.10
2017-10-20T04:40:30.782Z,10.10
2017-10-20T04:42:57.130Z,10.00
2017-10-20T04:45:23.494Z,10.10
2017-10-20T04:47:50.558Z,10.10
2017-10-20T04:50:16.868Z,10.10
2017-10-20T04:52:43.238Z,10.00
2017-10-20T04:55:09.577Z,10.00
2017-10-20T04:57:35.982Z,10.00
2017-10-20T05:00:04.077Z,10.00
2017-10-20T05:02:30.435Z,10.00
2017-10-20T05:04:56.909Z,10.00
2017-10-20T05:07:24.167Z,9.90
2017-10-20T05:09:50.555Z,9.90
2017-10-20T05:12:16.919Z,10.00
2017-10-20T05:14:43.421Z,10.00
2017-10-20T05:17:09.747Z,10.00
2017-10-20T05:19:36.085Z,10.00
2017-10-20T05:22:02.363Z,10.00
2017-10-20T05:24:29.587Z,10.10
2017-10-20T05:26:55.894Z,10.10
2017-10-20T05:29:22.299Z,10.10
2017-10-20T05:31:48.638Z,10.10
2017-10-20T05:34:14.930Z,10.10
2017-10-20T05:36:41.290Z,10.10
2017-10-20T05:39:08.780Z,10.10
2017-10-20T05:41:35.139Z,10.10
2017-10-20T05:44:02.416Z,10.00
2017-10-20T05:46:29.605Z,10.10
2017-10-20T05:48:56.043Z,10.10
2017-10-20T05:51:24.031Z,10.20
2017-10-20T05:53:51.096Z,10.20
2017-10-20T05:56:17.523Z,10.20
2017-10-20T05:58:43.888Z,10.20
2017-10-20T06:01:10.295Z,10.30
2017-10-20T06:03:36.908Z,10.30
2017-10-20T06:06:03.514Z,10.30
2017-10-20T06:08:30.543Z,10.30
2017-10-20T06:10:57.048Z,10.30
2017-10-20T06:13:24.233Z,10.40
2017-10-20T06:15:51.580Z,10.40
2017-10-20T06:18:18.640Z,10.50
2017-10-20T06:20:44.960Z,10.50
2017-10-20T06:23:11.431Z,10.50
2017-10-20T06:25:37.738Z,10.60
2017-10-20T06:28:04.059Z,10.70
2017-10-20T06:30:31.184Z,10.70
2017-10-20T06:32:57.510Z,10.70
2017-10-20T06:35:24.123Z,10.70
2017-10-20T06:37:50.512Z,10.90
2017-10-20T06:40:17.704Z,11.10
2017-10-20T06:42:44.203Z,11.10
2017-10-20T06:45:10.581Z,11.10
2017-10-20T06:47:37.763Z,11.30
2017-10-20T06:50:04.974Z,11.30
2017-10-20T06:52:31.382Z,11.20
2017-10-20T06:54:57.700Z,11.30
2017-10-20T06:57:24.786Z,11.40
2017-10-20T06:59:51.125Z,11.40
2017-10-20T07:02:17.467Z,11.50
2017-10-20T07:04:43.898Z,11.50
2017-10-20T07:07:10.242Z,11.70
2017-10-20T07:09:36.664Z,11.80
2017-10-20T07:12:03.108Z,11.70
2017-10-20T07:14:29.526Z,11.80
2017-10-20T07:16:55.918Z,11.90
2017-10-20T07:19:28.475Z,12.00
2017-10-20T07:21:55.614Z,12.30
2017-10-20T07:24:21.990Z,12.30
2017-10-20T07:26:48.350Z,12.40
2017-10-20T07:29:14.680Z,12.50
2017-10-20T07:31:41.147Z,12.60
2017-10-20T07:34:07.528Z,12.60
2017-10-20T07:36:33.990Z,12.70
2017-10-20T07:39:00.394Z,12.80
2017-10-20T07:41:27.646Z,12.70
2017-10-20T07:43:54.038Z,12.80
2017-10-20T07:46:20.833Z,12.80
2017-10-20T07:48:47.171Z,13.00
2017-10-20T07:51:13.636Z,13.10
2017-10-20T07:53:40.735Z,13.20
2017-10-20T07:56:07.093Z,13.20
2017-10-20T07:58:33.430Z,13.30
2017-10-20T08:00:59.831Z,13.40
2017-10-20T08:03:26.219Z,13.50
2017-10-20T08:05:53.417Z,13.60
2017-10-20T08:08:19.813Z,13.60
2017-10-20T08:10:46.877Z,13.60
2017-10-20T08:13:13.141Z,13.60
2017-10-20T08:15:39.740Z,13.70
2017-10-20T08:18:06.861Z,13.90
2017-10-20T08:20:33.188Z,13.90
2017-10-20T08:22:59.528Z,14.00
2017-10-20T08:25:25.826Z,14.10
2017-10-20T08:27:52.114Z,14.30
2017-10-20T08:30:19.168Z,14.40
2017-10-20T08:32:45.526Z,14.40
2017-10-20T08:35:11.884Z,14.40
2017-10-20T08:37:38.231Z,14.50
2017-10-20T08:40:04.592Z,14.60
2017-10-20T08:42:31.747Z,14.70
2017-10-20T08:44:58.827Z,14.70
2017-10-20T08:47:25.139Z,14.60
2017-10-20T08:49:51.547Z,14.90
2017-10-20T08:52:18.609Z,15.00
2017-10-20T08:54:44.924Z,15.00
2017-10-20T08:57:11.341Z,15.20
2017-10-20T08:59:37.638Z,15.30
2017-10-20T09:02:03.921Z,15.60
2017-10-20T09:04:30.345Z,15.60
2017-10-20T09:06:57.530Z,15.80
2017-10-20T09:09:24.349Z,15.70
2017-10-20T09:11:51.405Z,16.10
2017-10-20T09:14:18.523Z,16.00
2017-10-20T09:16:44.810Z,16.00
2017-10-20T09:19:11.156Z,16.00
2017-10-20T09:21:37.545Z,16.30
2017-10-20T09:24:04.597Z,16.50
2017-10-20T09:26:30.916Z,16.40
2017-10-20T09:28:58.138Z,16.40
2017-10-20T09:31:24.478Z,16.40
2017-10-20T09:33:50.769Z,16.90
2017-10-20T09:36:17.079Z,17.40
2017-10-20T09:38:43.431Z,17.60
2017-10-20T09:41:09.959Z,17.70
2017-10-20T09:43:36.265Z,17.40
2017-10-20T09:46:03.379Z,17.30
2017-10-20T09:48:29.729Z,17.20
2017-10-20T09:50:56.872Z,17.50
2017-10-20T09:53:24.206Z,17.50
2017-10-20T09:55:50.568Z,17.50
2017-10-20T09:58:17.668Z,17.50
2017-10-20T10:00:50.998Z,17.50
2017-10-20T10:03:17.367Z,17.60
2017-10-20T10:05:43.678Z,17.70
2017-10-20T10:08:10.842Z,17.60
2017-10-20T10:10:37.965Z,17.70
2017-10-20T10:13:04.371Z,17.70
2017-10-20T10:15:30.885Z,17.70
2017-10-20T10:17:57.377Z,17.80
2017-10-20T10:20:23.719Z,18.10
2017-10-20T10:22:50.863Z,18.10
2017-10-20T10:25:17.264Z,18.20
2017-10-20T10:27:43.564Z,18.20
2017-10-20T10:30:09.921Z,18.40
2017-10-20T10:32:36.248Z,18.60
2017-10-20T10:35:02.693Z,18.80
2017-10-20T10:37:29.090Z,19.20
2017-10-20T10:39:55.428Z,19.70
2017-10-20T10:42:21.804Z,19.70
2017-10-20T10:44:48.149Z,19.50
2017-10-20T10:47:14.539Z,19.50
2017-10-20T10:49:40.834Z,19.60
2017-10-20T10:52:07.162Z,19.50
2017-10-20T10:54:33.553Z,19.50
2017-10-20T10:57:00.063Z,19.70
2017-10-20T10:59:26.447Z,19.70
2017-10-20T11:01:53.053Z,19.90
2017-10-20T11:04:19.405Z,20.30
2017-10-20T11:07:04.240Z,20.20
2017-10-20T11:09:30.622Z,21.00
2017-10-20T11:12:15.803Z,21.50
2017-10-20T11:14:42.205Z,21.50
2017-10-20T11:17:08.635Z,21.00
2017-10-20T11:19:34.997Z,20.70
2017-10-20T11:22:02.221Z,21.00
2017-10-20T11:24:28.676Z,21.00
2017-10-20T11:26:56.035Z,21.40
2017-10-20T11:29:23.088Z,21.50
2017-10-20T11:31:50.146Z,21.80
2017-10-20T11:34:16.480Z,21.80
2017-10-20T11:36:42.818Z,21.30
2017-10-20T11:39:09.279Z,21.30
2017-10-20T11:41:35.834Z,21.30
2017-10-20T11:44:02.291Z,20.90
2017-10-20T11:46:29.349Z,21.40
2017-10-20T11:48:56.476Z,21.90
2017-10-20T11:51:22.886Z,21.90
2017-10-20T11:53:49.242Z,22.20
2017-10-20T11:56:15.566Z,22.10
2017-10-20T11:58:41.898Z,22.10
2017-10-20T12:01:08.305Z,22.10
2017-10-20T12:03:34.770Z,21.90
2017-10-20T12:06:01.189Z,22.30
2017-10-20T12:08:27.529Z,22.70
2017-10-20T12:10:53.915Z,23.70
2017-10-20T12:13:20.263Z,24.60
2017-10-20T12:15:46.609Z,26.00
2017-10-20T12:18:12.983Z,27.30
2017-10-20T12:20:39.381Z,27.10
2017-10-20T12:23:05.808Z,27.80
2017-10-20T12:25:32.182Z,27.40
2017-10-20T12:27:59.296Z,29.20
2017-10-20T12:30:25.721Z,29.20
2017-10-20T12:32:52.090Z,28.40
2017-10-20T12:35:19.125Z,24.70
2017-10-20T12:37:45.544Z,24.60
2017-10-20T12:40:11.986Z,24.30
2017-10-20T12:42:38.300Z,24.60
2017-10-20T12:45:04.724Z,23.70
2017-10-20T12:47:31.068Z,22.90
2017-10-20T12:49:57.445Z,22.10
2017-10-20T12:52:23.823Z,22.20
2017-10-20T12:54:50.254Z,22.20
2017-10-20T12:57:17.628Z,21.90
2017-10-20T12:59:43.936Z,21.30
2017-10-20T13:02:10.272Z,21.40
2017-10-20T13:04:36.692Z,21.20
2017-10-20T13:07:03.160Z,21.20
2017-10-20T13:09:29.545Z,21.00
2017-10-20T13:11:56.029Z,21.00
2017-10-20T13:14:22.513Z,21.00
2017-10-20T13:16:48.891Z,21.20
2017-10-20T13:19:15.317Z,21.60
2017-10-20T13:21:41.776Z,21.40
2017-10-20T13:24:09.232Z,21.60
2017-10-20T13:26:35.733Z,22.00
2017-10-20T13:29:02.195Z,22.30
2017-10-20T13:31:28.682Z,22.70
2017-10-20T13:33:55.070Z,23.20
2017-10-20T13:36:21.443Z,23.80
2017-10-20T13:38:47.818Z,24.00
2017-10-20T13:41:14.667Z,24.20
2017-10-20T13:43:40.980Z,23.90
2017-10-20T13:46:07.424Z,22.80
2017-10-20T13:48:33.797Z,22.90
2017-10-20T13:51:00.355Z,23.30
2017-10-20T13:53:26.780Z,23.10
2017-10-20T13:55:54.199Z,22.90
2017-10-20T13:58:20.540Z,22.40
2017-10-20T14:00:47.676Z,21.90
2017-10-20T14:03:14.125Z,21.90
2017-10-20T14:05:40.516Z,22.30
2017-10-20T14:08:06.940Z,24.70
2017-10-20T14:10:33.405Z,25.60
2017-10-20T14:12:59.899Z,26.70
2017-10-20T14:15:26.391Z,27.10
2017-10-20T14:17:53.130Z,26.70
2017-10-20T14:20:19.526Z,24.70
2017-10-20T14:22:45.869Z,22.80
2017-10-20T14:25:12.253Z,21.30
2017-10-20T14:27:39.213Z,21.00
2017-10-20T14:30:05.580Z,20.80
2017-10-20T14:32:31.939Z,20.60
2017-10-20T14:34:58.314Z,20.20
2017-10-20T14:37:24.691Z,19.40
2017-10-20T14:39:50.990Z,19.40
2017-10-20T14:42:18.283Z,19.40
2017-10-20T14:44:44.743Z,19.40
2017-10-20T14:47:11.038Z,19.10
2017-10-20T14:49:37.341Z,18.80
2017-10-20T14:52:03.712Z,18.60
2017-10-20T14:54:30.374Z,18.10
2017-10-20T14:56:56.815Z,17.90
2017-10-20T14:59:23.247Z,18.00
2017-10-20T15:01:49.635Z,17.90
2017-10-20T15:04:15.948Z,17.80
2017-10-20T15:06:42.223Z,17.60
2017-10-20T15:09:09.281Z,17.30
2017-10-20T15:11:35.611Z,17.30
2017-10-20T15:14:01.996Z,17.20
2017-10-20T15:16:28.422Z,17.30
2017-10-20T15:18:54.857Z,17.30
2017-10-20T15:21:21.196Z,17.30
2017-10-20T15:23:47.554Z,17.20
2017-10-20T15:26:14.083Z,17.10
2017-10-20T15:28:40.497Z,17.00
2017-10-20T15:31:06.858Z,16.90
2017-10-20T15:33:33.458Z,16.70
2017-10-20T15:35:59.874Z,16.60
2017-10-20T15:38:26.214Z,16.40
2017-10-20T15:40:52.501Z,16.40
2017-10-20T15:43:19.675Z,16.50
2017-10-20T15:45:46.306Z,16.50
2017-10-20T15:48:12.772Z,16.40
2017-10-20T15:50:40.214Z,16.40
2017-10-20T15:53:06.662Z,16.30
2017-10-20T15:55:33.893Z,16.20
2017-10-20T15:58:00.285Z,16.10
2017-10-20T16:00:26.611Z,16.00
2017-10-20T16:02:52.962Z,16.00
2017-10-20T16:05:20.009Z,15.90
2017-10-20T16:07:47.151Z,15.90
2017-10-20T16:10:13.509Z,15.90
2017-10-20T16:12:39.911Z,15.80
2017-10-20T16:15:06.281Z,15.80
2017-10-20T16:17:32.597Z,15.80
2017-10-20T16:19:58.980Z,15.80
2017-10-20T16:22:25.300Z,15.60
2017-10-20T16:24:52.934Z,15.60
2017-10-20T16:27:20.271Z,15.60
2017-10-20T16:29:46.613Z,15.60
2017-10-20T16:32:13.002Z,15.60
2017-10-20T16:34:39.312Z,15.50
2017-10-20T16:37:05.662Z,15.60
2017-10-20T16:39:32.196Z,15.50
2017-10-20T16:41:58.626Z,15.50
2017-10-20T16:44:25.806Z,15.30
2017-10-20T16:46:52.947Z,15.30
2017-10-20T16:49:19.254Z,15.30
2017-10-20T16:51:45.751Z,15.20
2017-10-20T16:54:12.171Z,15.10
2017-10-20T16:56:39.311Z,15.20
2017-10-20T16:59:06.441Z,15.10
2017-10-20T17:01:32.795Z,15.10
2017-10-20T17:03:59.949Z,15.10
2017-10-20T17:06:27.129Z,15.10
2017-10-20T17:08:53.496Z,15.10
2017-10-20T17:11:19.929Z,15.10
2017-10-20T17:13:46.277Z,15.00
2017-10-20T17:16:12.625Z,15.00
2017-10-20T17:18:39.881Z,15.10
2017-10-20T17:21:07.008Z,15.20
2017-10-20T17:23:33.322Z,15.10
2017-10-20T17:25:59.720Z,15.10
2017-10-20T17:28:26.116Z,15.10
2017-10-20T17:30:52.479Z,15.10
2017-10-20T17:33:18.850Z,15.20
2017-10-20T17:35:45.264Z,15.10
2017-10-20T17:38:11.615Z,15.10
2017-10-20T17:40:37.921Z,15.10
2017-10-20T17:43:04.283Z,15.20
2017-10-20T17:45:30.719Z,15.00
2017-10-20T17:47:57.076Z,15.10
2017-10-20T17:50:23.583Z,15.10
2017-10-20T17:52:49.915Z,15.00
2017-10-20T17:55:16.337Z,14.80
2017-10-20T17:57:42.703Z,14.90
2017-10-20T18:00:08.966Z,15.00
2017-10-20T18:02:35.291Z,14.90
2017-10-20T18:05:01.734Z,14.90
2017-10-20T18:07:28.122Z,15.00
2017-10-20T18:09:54.493Z,15.00
2017-10-20T18:12:21.050Z,15.00
2017-10-20T18:14:47.428Z,15.00
2017-10-20T18:17:13.899Z,15.00
2017-10-20T18:19:40.203Z,14.90
2017-10-20T18:22:07.364Z,14.80
2017-10-20T18:24:34.450Z,14.70
2017-10-20T18:27:00.805Z,14.70
2017-10-20T18:29:27.158Z,14.60
2017-10-20T18:31:55.048Z,14.60
2017-10-20T18:34:22.247Z,14.50
2017-10-20T18:36:48.574Z,14.50
2017-10-20T18:39:14.889Z,14.50
2017-10-20T18:41:41.226Z,14.20
2017-10-20T18:44:07.625Z,14.10
2017-10-20T18:46:34.697Z,14.00
2017-10-20T18:49:01.049Z,14.00
2017-10-20T18:51:27.511Z,14.10
2017-10-20T18:53:53.947Z,14.10
2017-10-20T18:56:20.283Z,14.10
2017-10-20T18:58:46.698Z,14.10
2017-10-20T19:01:13.090Z,14.10
2017-10-20T19:03:39.516Z,14.10
2017-10-20T19:06:05.989Z,14.10
2017-10-20T19:08:32.306Z,14.10
2017-10-20T19:10:58.689Z,14.00
2017-10-20T19:13:25.927Z,13.80
2017-10-20T19:15:52.356Z,13.70
2017-10-20T19:18:18.887Z,13.70
2017-10-20T19:20:45.531Z,13.70
2017-10-20T19:23:11.974Z,13.60
2017-10-20T19:25:38.370Z,13.50
2017-10-20T19:28:04.781Z,13.40
2017-10-20T19:30:31.090Z,13.40
2017-10-20T19:32:58.261Z,13.30
2017-10-20T19:35:24.574Z,13.20
2017-10-20T19:37:52.573Z,13.10
2017-10-20T19:40:18.867Z,13.10
2017-10-20T19:42:45.926Z,13.00
2017-10-20T19:45:12.968Z,12.90
2017-10-20T19:47:40.018Z,12.90
2017-10-20T19:50:07.190Z,12.90
2017-10-20T19:52:33.523Z,12.90
2017-10-20T19:54:59.836Z,12.80
2017-10-20T19:57:26.200Z,12.90
2017-10-20T19:59:52.572Z,12.90
2017-10-20T20:02:18.898Z,12.90
2017-10-20T20:04:45.374Z,12.90
2017-10-20T20:07:11.826Z,12.90
2017-10-20T20:09:38.238Z,12.90
2017-10-20T20:12:04.703Z,13.00
2017-10-20T20:14:31.186Z,13.10
2017-10-20T20:16:58.281Z,13.10
2017-10-20T20:19:24.654Z,13.00
2017-10-20T20:21:51.791Z,13.00
2017-10-20T20:24:18.179Z,13.00
2017-10-20T20:26:44.505Z,12.80
2017-10-20T20:29:10.887Z,12.90
2017-10-20T20:31:39.299Z,13.10
2017-10-20T20:37:10.443Z,13.00
2017-10-20T20:39:36.898Z,13.00
2017-10-20T20:42:04.017Z,13.10
2017-10-20T20:44:31.350Z,13.10
2017-10-20T20:46:57.750Z,13.10
2017-10-20T20:49:24.379Z,13.20
2017-10-20T20:51:51.538Z,13.30
2017-10-20T20:54:17.991Z,13.30
2017-10-20T20:56:44.462Z,13.30
2017-10-20T20:59:10.965Z,13.30
2017-10-20T21:01:37.408Z,13.30
2017-10-20T21:04:03.838Z,13.10
2017-10-20T21:06:30.240Z,13.20
2017-10-20T21:08:56.650Z,13.10
2017-10-20T21:11:23.007Z,13.20
2017-10-20T21:13:49.655Z,13.20
2017-10-20T21:16:16.128Z,13.10
2017-10-20T21:18:42.632Z,13.10
2017-10-20T21:21:09.035Z,13.20
2017-10-20T21:23:35.449Z,13.30
2017-10-20T21:26:01.815Z,13.30
2017-10-20T21:28:28.144Z,13.20
2017-10-20T21:30:55.382Z,13.40
2017-10-20T21:33:21.787Z,13.50
2017-10-20T21:35:48.131Z,13.60
2017-10-20T21:38:14.473Z,13.70
2017-10-20T21:40:41.645Z,13.70
2017-10-20T21:43:08.188Z,13.70
2017-10-20T21:45:34.802Z,13.70
2017-10-20T21:48:01.217Z,13.70
2017-10-20T21:50:27.715Z,13.60
2017-10-20T21:52:54.054Z,13.60
2017-10-20T21:55:20.413Z,13.50
2017-10-20T21:57:47.580Z,13.60
2017-10-20T22:00:14.693Z,13.50
2017-10-20T22:02:41.091Z,13.40
2017-10-20T22:05:07.544Z,13.50
2017-10-20T22:07:33.912Z,13.40
2017-10-20T22:10:00.257Z,13.40
2017-10-20T22:12:27.412Z,13.20
2017-10-20T22:14:53.838Z,13.10
2017-10-20T22:17:20.900Z,13.00
2017-10-20T22:19:47.203Z,13.00
2017-10-20T22:22:13.614Z,12.90
2017-10-20T22:24:40.177Z,12.80
2017-10-20T22:27:06.911Z,12.70
2017-10-20T22:29:33.439Z,12.70
2017-10-20T22:32:00.013Z,12.60
2017-10-20T22:34:26.436Z,12.50
2017-10-20T22:36:53.593Z,12.40
2017-10-20T22:39:20.799Z,12.40
2017-10-20T22:41:47.167Z,12.30
2017-10-20T22:44:13.505Z,12.40
2017-10-20T22:46:39.841Z,12.30
2017-10-20T22:49:06.961Z,12.20
2017-10-20T22:51:33.367Z,12.20
2017-10-20T22:54:00.577Z,12.20
2017-10-20T22:56:26.935Z,12.10
2017-10-20T22:58:53.392Z,12.10
2017-10-20T23:01:19.746Z,12.10
2017-10-20T23:03:46.138Z,12.00
2017-10-20T23:06:12.559Z,11.90
2017-10-20T23:08:38.914Z,11.90
2017-10-20T23:11:05.210Z,11.90
2017-10-20T23:13:32.343Z,11.80
2017-10-20T23:15:59.494Z,11.80
2017-10-20T23:18:26.591Z,11.70
2017-10-20T23:20:53.034Z,11.70
2017-10-20T23:23:19.389Z,11.70
2017-10-20T23:25:45.775Z,11.70
2017-10-20T23:28:12.133Z,11.60
2017-10-20T23:30:38.595Z,11.70
2017-10-20T23:33:05.005Z,11.60
2017-10-20T23:35:31.429Z,11.70
2017-10-20T23:37:57.856Z,11.60
2017-10-20T23:40:24.342Z,11.60
2017-10-20T23:42:51.447Z,11.70
2017-10-20T23:45:18.017Z,11.60
2017-10-20T23:47:45.134Z,11.60
2017-10-20T23:50:11.509Z,11.60
2017-10-20T23:52:38.717Z,11.60
2017-10-20T23:55:05.428Z,11.60
2017-10-20T23:57:31.886Z,11.60
2017-10-20T23:59:58.271Z,11.60
